createdAt,value
2023-11-25T00:00:47.476Z,22.13
2023-11-25T00:03:15.130Z,26.00
2023-11-25T00:05:42.372Z,24.27
2023-11-25T00:08:09.698Z,24.33
2023-11-25T00:10:36.320Z,22.65
2023-11-25T00:13:04.941Z,25.20
2023-11-25T00:15:31.618Z,26.00
2023-11-25T00:17:58.582Z,26.35
2023-11-25T00:20:26.536Z,24.83
2023-11-25T00:22:53.750Z,24.88
2023-11-25T00:25:21.035Z,25.95
2023-11-25T00:27:47.757Z,22.85
2023-11-25T00:30:15.736Z,24.17
2023-11-25T00:32:42.886Z,22.38
2023-11-25T00:35:10.217Z,24.45
2023-11-25T00:37:37.811Z,23.95
2023-11-25T00:40:06.180Z,26.10
2023-11-25T00:42:32.889Z,27.05
2023-11-25T00:44:59.627Z,24.35
2023-11-25T00:47:28.746Z,24.23
2023-11-25T00:49:56.635Z,24.25
2023-11-25T00:52:23.523Z,23.77
2023-11-25T00:54:50.150Z,25.58
2023-11-25T00:57:16.825Z,27.75
2023-11-25T00:59:43.442Z,25.83
2023-11-25T01:02:10.119Z,24.95
2023-11-25T01:04:40.687Z,26.30
2023-11-25T01:07:07.705Z,26.90
2023-11-25T01:09:35.573Z,27.85
2023-11-25T01:12:03.084Z,27.08
2023-11-25T01:14:30.294Z,26.35
2023-11-25T01:16:58.110Z,25.50
2023-11-25T01:19:25.017Z,26.13
2023-11-25T01:21:51.656Z,25.80
2023-11-25T01:24:18.422Z,25.60
2023-11-25T01:26:45.088Z,25.13
2023-11-25T01:29:11.882Z,26.63
2023-11-25T01:31:39.296Z,26.45
2023-11-25T01:34:07.395Z,25.85
2023-11-25T01:36:34.076Z,25.92
2023-11-25T01:39:00.666Z,25.17
2023-11-25T01:41:27.783Z,26.45
2023-11-25T01:43:56.067Z,23.92
2023-11-25T01:46:37.723Z,25.65
2023-11-25T01:49:11.829Z,26.05
2023-11-25T01:51:43.919Z,27.38
2023-11-25T01:54:12.097Z,26.05
2023-11-25T01:56:38.723Z,23.58
2023-11-25T01:59:07.966Z,25.52
2023-11-25T02:05:37.823Z,24.08
2023-11-25T02:08:04.656Z,25.40
2023-11-25T02:10:31.322Z,24.92
2023-11-25T02:12:58.033Z,24.95
2023-11-25T02:15:25.305Z,24.02
2023-11-25T02:17:52.006Z,26.15
2023-11-25T02:20:34.201Z,25.08
2023-11-25T02:23:00.950Z,29.13
2023-11-25T02:25:28.669Z,25.13
2023-11-25T02:27:56.284Z,23.27
2023-11-25T02:30:27.769Z,24.48
2023-11-25T02:32:54.944Z,25.77
2023-11-25T02:35:24.358Z,22.95
2023-11-25T02:37:51.100Z,26.42
2023-11-25T02:40:18.116Z,24.27
2023-11-25T02:42:48.315Z,26.52
2023-11-25T02:45:19.776Z,25.35
2023-11-25T02:47:48.214Z,25.92
2023-11-25T02:50:15.314Z,25.13
2023-11-25T02:52:42.149Z,23.00
2023-11-25T02:55:12.207Z,26.27
2023-11-25T02:57:44.337Z,25.70
2023-11-25T03:00:29.547Z,24.60
2023-11-25T03:03:10.489Z,24.48
2023-11-25T03:05:38.469Z,23.10
2023-11-25T03:08:06.950Z,25.02
2023-11-25T03:10:34.740Z,25.27
2023-11-25T03:13:01.768Z,23.88
2023-11-25T03:15:28.385Z,27.83
2023-11-25T03:17:55.109Z,24.67
2023-11-25T03:20:21.783Z,25.45
2023-11-25T03:22:49.088Z,25.65
2023-11-25T03:25:16.119Z,25.13
2023-11-25T03:27:42.764Z,24.67
2023-11-25T03:30:12.503Z,25.95
2023-11-25T03:32:39.190Z,25.45
2023-11-25T03:35:07.711Z,27.50
2023-11-25T03:37:34.372Z,26.98
2023-11-25T03:40:00.990Z,26.80
2023-11-25T03:42:28.309Z,26.15
2023-11-25T03:44:54.974Z,26.48
2023-11-25T03:47:21.674Z,25.35
2023-11-25T03:49:48.341Z,24.90
2023-11-25T03:52:14.936Z,26.58
2023-11-25T03:54:41.492Z,25.15
2023-11-25T03:57:08.094Z,26.27
2023-11-25T03:59:34.708Z,25.73
2023-11-25T04:02:01.386Z,24.48
2023-11-25T04:04:28.126Z,25.95
2023-11-25T04:06:54.830Z,25.02
2023-11-25T04:09:21.439Z,26.35
2023-11-25T04:11:48.035Z,25.17
2023-11-25T04:14:14.757Z,26.35
2023-11-25T04:16:41.347Z,26.08
2023-11-25T04:19:08.059Z,24.10
2023-11-25T04:21:34.787Z,26.55
2023-11-25T04:24:01.353Z,26.88
2023-11-25T04:26:27.946Z,28.63
2023-11-25T04:28:54.482Z,23.75
2023-11-25T04:31:21.753Z,26.48
2023-11-25T04:33:48.564Z,25.00
2023-11-25T04:36:19.243Z,26.52
2023-11-25T04:38:47.481Z,27.33
2023-11-25T04:41:14.401Z,26.13
2023-11-25T04:43:41.231Z,25.85
2023-11-25T04:46:11.292Z,25.55
2023-11-25T04:48:38.136Z,25.83
2023-11-25T04:51:05.320Z,26.35
2023-11-25T04:53:32.294Z,26.30
2023-11-25T04:55:58.953Z,25.58
2023-11-25T04:58:25.621Z,24.75
2023-11-25T05:00:52.360Z,24.75
2023-11-25T05:03:19.084Z,26.63
2023-11-25T05:05:46.835Z,24.83
2023-11-25T05:08:13.493Z,28.42
2023-11-25T05:10:40.101Z,24.48
2023-11-25T05:13:08.015Z,26.08
2023-11-25T05:15:36.382Z,24.67
2023-11-25T05:18:03.061Z,26.35
2023-11-25T05:20:29.669Z,27.55
2023-11-25T05:22:56.324Z,25.48
2023-11-25T05:25:23.449Z,24.63
2023-11-25T05:27:51.176Z,26.08
2023-11-25T05:30:18.754Z,23.55
2023-11-25T05:32:45.803Z,25.80
2023-11-25T05:35:14.515Z,26.23
2023-11-25T05:37:44.007Z,25.95
2023-11-25T05:40:15.400Z,26.58
2023-11-25T05:42:50.032Z,28.38
2023-11-25T05:47:45.386Z,28.55
2023-11-25T05:50:12.546Z,27.50
2023-11-25T05:52:39.147Z,24.27
2023-11-25T05:55:06.543Z,26.40
2023-11-25T05:57:33.305Z,20.30
2023-11-25T05:59:59.937Z,27.17
2023-11-25T06:02:27.309Z,25.77
2023-11-25T06:04:54.181Z,24.33
2023-11-25T06:07:20.948Z,24.52
2023-11-25T06:09:47.664Z,24.85
2023-11-25T06:12:14.767Z,26.00
2023-11-25T06:14:41.496Z,25.48
2023-11-25T06:17:08.529Z,25.67
2023-11-25T06:19:35.296Z,26.30
2023-11-25T06:22:04.640Z,24.15
2023-11-25T06:24:31.984Z,26.13
2023-11-25T06:26:58.678Z,25.88
2023-11-25T06:29:25.421Z,23.38
2023-11-25T06:31:52.504Z,25.20
2023-11-25T06:34:19.902Z,24.13
2023-11-25T06:36:47.532Z,22.95
2023-11-25T06:39:16.095Z,22.77
2023-11-25T06:41:47.926Z,25.75
2023-11-25T06:44:14.960Z,22.92
2023-11-25T06:46:41.680Z,23.10
2023-11-25T06:49:08.549Z,22.95
2023-11-25T06:51:35.153Z,24.58
2023-11-25T06:54:01.905Z,25.15
2023-11-25T06:56:28.493Z,25.50
2023-11-25T06:58:55.287Z,22.58
2023-11-25T07:01:23.163Z,24.33
2023-11-25T07:03:49.877Z,23.23
2023-11-25T07:06:19.917Z,21.60
2023-11-25T07:08:47.000Z,26.13
2023-11-25T07:11:17.389Z,24.63
2023-11-25T07:13:44.275Z,24.67
2023-11-25T07:16:13.325Z,23.45
2023-11-25T07:18:44.103Z,26.05
2023-11-25T07:21:14.279Z,23.95
2023-11-25T07:23:41.039Z,24.73
2023-11-25T07:26:07.953Z,23.27
2023-11-25T07:28:34.873Z,23.73
2023-11-25T07:31:01.786Z,24.63
2023-11-25T07:33:28.706Z,25.25
2023-11-25T07:35:55.444Z,24.05
2023-11-25T07:38:21.993Z,26.30
2023-11-25T07:40:48.652Z,24.60
2023-11-25T07:43:16.569Z,26.15
2023-11-25T07:45:45.141Z,24.00
2023-11-25T07:48:12.426Z,24.65
2023-11-25T07:50:44.567Z,26.45
2023-11-25T07:53:13.639Z,25.40
2023-11-25T07:55:41.041Z,24.90
2023-11-25T07:58:08.775Z,26.10
2023-11-25T08:00:35.419Z,22.23
2023-11-25T08:03:03.651Z,25.25
2023-11-25T08:05:30.434Z,27.80
2023-11-25T08:07:57.464Z,25.00
2023-11-25T08:10:26.006Z,25.08
2023-11-25T08:12:52.831Z,24.92
2023-11-25T08:15:19.429Z,25.98
2023-11-25T08:17:46.090Z,26.58
2023-11-25T08:20:13.389Z,25.48
2023-11-25T08:22:40.624Z,26.10
2023-11-25T08:25:11.230Z,27.92
2023-11-25T08:27:38.610Z,30.77
2023-11-25T08:30:12.819Z,27.92
2023-11-25T08:32:41.270Z,28.95
2023-11-25T08:35:10.051Z,27.95
2023-11-25T08:37:39.552Z,30.95
2023-11-25T08:40:08.600Z,27.23
2023-11-25T08:42:36.306Z,27.92
2023-11-25T08:45:03.676Z,27.75
2023-11-25T08:47:30.817Z,27.48
2023-11-25T08:49:57.980Z,27.65
2023-11-25T08:52:25.854Z,26.15
2023-11-25T08:54:53.724Z,28.23
2023-11-25T08:57:21.854Z,26.60
2023-11-25T08:59:49.209Z,26.65
2023-11-25T09:02:23.070Z,27.25
2023-11-25T09:04:59.632Z,24.83
2023-11-25T09:07:35.665Z,27.23
2023-11-25T09:10:06.369Z,27.10
2023-11-25T09:12:33.244Z,28.10
2023-11-25T09:15:00.818Z,25.17
2023-11-25T09:17:27.455Z,25.85
2023-11-25T09:19:54.045Z,26.40
2023-11-25T09:22:21.008Z,28.38
2023-11-25T09:24:47.752Z,27.48
2023-11-25T09:27:14.856Z,27.55
2023-11-25T09:29:43.347Z,26.35
2023-11-25T09:32:11.275Z,25.00
2023-11-25T09:34:39.863Z,26.27
2023-11-25T09:37:08.588Z,26.55
2023-11-25T09:39:36.086Z,26.98
2023-11-25T09:42:02.918Z,26.27
2023-11-25T09:44:30.644Z,28.75
2023-11-25T09:46:57.714Z,26.15
2023-11-25T09:49:24.753Z,29.98
2023-11-25T09:51:52.607Z,29.08
2023-11-25T09:54:22.946Z,28.50
2023-11-25T09:56:52.985Z,27.50
2023-11-25T09:59:19.866Z,29.13
2023-11-25T10:01:46.708Z,29.05
2023-11-25T10:04:16.945Z,28.98
2023-11-25T10:06:43.648Z,28.17
2023-11-25T10:09:11.753Z,26.08
2023-11-25T10:11:43.696Z,28.63
2023-11-25T10:14:14.330Z,26.60
2023-11-25T10:16:45.477Z,27.38
2023-11-25T10:19:22.026Z,29.60
2023-11-25T10:21:49.670Z,28.23
2023-11-25T10:24:16.839Z,27.98
2023-11-25T10:26:45.012Z,31.02
2023-11-25T10:29:14.117Z,27.50
2023-11-25T10:31:46.785Z,29.70
2023-11-25T10:34:14.635Z,25.75
2023-11-25T10:36:41.489Z,30.08
2023-11-25T10:39:11.426Z,26.42
2023-11-25T10:41:38.542Z,29.10
2023-11-25T10:44:07.262Z,29.13
2023-11-25T10:46:39.582Z,27.67
2023-11-25T10:49:07.765Z,26.05
2023-11-25T10:51:34.666Z,27.55
2023-11-25T10:54:01.733Z,25.80
2023-11-25T10:56:29.842Z,25.50
2023-11-25T10:58:57.383Z,24.92
2023-11-25T11:01:25.329Z,25.35
2023-11-25T11:04:00.088Z,25.52
2023-11-25T11:06:42.490Z,23.10
2023-11-25T11:09:10.733Z,24.42
2023-11-25T11:11:48.479Z,25.90
2023-11-25T11:14:16.651Z,23.02
2023-11-25T11:17:02.093Z,25.88
2023-11-25T11:19:41.822Z,26.13
2023-11-25T11:22:12.220Z,24.58
2023-11-25T11:25:00.566Z,24.90
2023-11-25T11:27:47.858Z,26.13
2023-11-25T11:30:56.924Z,26.42
2023-11-25T11:33:23.825Z,23.80
2023-11-25T11:35:50.685Z,24.67
2023-11-25T11:38:28.362Z,24.50
2023-11-25T11:40:56.957Z,24.23
2023-11-25T11:43:23.656Z,24.98
2023-11-25T11:45:50.769Z,24.23
2023-11-25T11:48:17.852Z,22.20
2023-11-25T11:50:45.622Z,24.23
2023-11-25T11:53:14.332Z,25.85
2023-11-25T11:55:41.504Z,23.27
2023-11-25T11:58:16.780Z,21.55
2023-11-25T12:00:49.085Z,21.20
2023-11-25T12:03:19.176Z,21.60
2023-11-25T12:05:46.305Z,22.98
2023-11-25T12:08:13.291Z,23.92
2023-11-25T12:10:40.534Z,23.10
2023-11-25T12:13:08.963Z,25.15
2023-11-25T12:15:35.647Z,24.70
2023-11-25T12:18:02.729Z,25.15
2023-11-25T12:20:30.150Z,25.50
2023-11-25T12:22:57.419Z,23.15
2023-11-25T12:25:25.135Z,25.15
2023-11-25T12:27:51.834Z,22.85
2023-11-25T12:30:18.581Z,22.88
2023-11-25T12:32:46.092Z,23.33
2023-11-25T12:35:14.772Z,24.27
2023-11-25T12:37:45.689Z,23.60
2023-11-25T12:40:22.793Z,23.65
2023-11-25T12:42:53.785Z,20.95
2023-11-25T12:45:30.868Z,22.63
2023-11-25T12:47:58.635Z,23.10
2023-11-25T12:50:27.466Z,21.83
2023-11-25T12:53:11.639Z,19.67
2023-11-25T12:55:39.697Z,21.98
2023-11-25T12:58:18.168Z,22.25
2023-11-25T13:00:59.287Z,23.10
2023-11-25T13:03:33.916Z,23.15
2023-11-25T13:06:01.969Z,22.95
2023-11-25T13:08:37.721Z,24.15
2023-11-25T13:11:12.345Z,24.58
2023-11-25T13:13:39.703Z,24.45
2023-11-25T13:16:09.741Z,24.58
2023-11-25T13:18:36.535Z,24.20
2023-11-25T13:21:05.654Z,23.75
2023-11-25T13:23:32.224Z,23.10
2023-11-25T13:25:58.882Z,23.92
2023-11-25T13:28:26.685Z,23.83
2023-11-25T13:30:53.570Z,23.88
2023-11-25T13:33:20.718Z,23.88
2023-11-25T13:35:47.923Z,23.58
2023-11-25T13:38:16.733Z,23.02
2023-11-25T13:40:44.243Z,24.85
2023-11-25T13:43:14.692Z,24.13
2023-11-25T13:45:42.629Z,24.65
2023-11-25T13:48:11.532Z,25.67
2023-11-25T13:50:38.857Z,25.20
2023-11-25T13:53:06.804Z,24.95
2023-11-25T13:55:43.022Z,25.42
2023-11-25T13:58:10.952Z,21.73
2023-11-25T14:00:38.413Z,26.73
2023-11-25T14:03:09.187Z,24.02
2023-11-25T14:05:41.881Z,26.92
2023-11-25T14:08:20.953Z,25.48
2023-11-25T14:10:48.236Z,28.65
2023-11-25T14:13:17.030Z,26.58
2023-11-25T14:15:43.920Z,26.88
2023-11-25T14:18:11.846Z,27.88
2023-11-25T14:20:38.871Z,24.98
2023-11-25T14:23:06.632Z,24.85
2023-11-25T14:25:33.690Z,26.73
2023-11-25T14:28:02.996Z,26.45
2023-11-25T14:30:32.026Z,23.33
2023-11-25T14:32:58.789Z,21.88
2023-11-25T14:35:25.822Z,25.10
2023-11-25T14:37:54.576Z,23.20
2023-11-25T14:40:24.889Z,21.35
2023-11-25T14:42:51.945Z,20.98
2023-11-25T14:45:19.052Z,23.08
2023-11-25T14:47:46.235Z,21.92
2023-11-25T14:50:14.099Z,21.98
2023-11-25T14:52:41.624Z,24.00
2023-11-25T14:55:09.651Z,21.95
2023-11-25T14:57:39.214Z,22.33
2023-11-25T15:00:10.205Z,22.98
2023-11-25T15:02:38.642Z,23.33
2023-11-25T15:05:08.637Z,24.65
2023-11-25T15:07:35.375Z,23.80
2023-11-25T15:10:01.959Z,24.83
2023-11-25T15:12:28.630Z,25.70
2023-11-25T15:14:55.873Z,23.13
2023-11-25T15:17:24.280Z,26.02
2023-11-25T15:19:51.325Z,25.25
2023-11-25T15:22:18.174Z,24.35
2023-11-25T15:24:45.360Z,26.58
2023-11-25T15:27:13.784Z,26.67
2023-11-25T15:29:40.716Z,29.05
2023-11-25T15:32:07.409Z,30.60
2023-11-25T15:34:34.028Z,28.20
2023-11-25T15:37:00.606Z,28.95
2023-11-25T15:39:28.267Z,27.17
2023-11-25T15:41:55.330Z,25.73
2023-11-25T15:44:22.618Z,24.48
2023-11-25T15:46:50.091Z,27.27
2023-11-25T15:49:17.174Z,28.75
2023-11-25T15:51:44.951Z,31.48
2023-11-25T15:54:11.749Z,27.52
2023-11-25T15:56:39.079Z,27.70
2023-11-25T15:59:07.275Z,27.33
2023-11-25T16:01:34.478Z,28.90
2023-11-25T16:04:01.771Z,28.50
2023-11-25T16:06:28.538Z,27.42
2023-11-25T16:08:55.416Z,27.60
2023-11-25T16:11:23.083Z,27.27
2023-11-25T16:13:49.891Z,26.05
2023-11-25T16:16:16.549Z,27.92
2023-11-25T16:18:43.587Z,30.10
2023-11-25T16:21:10.295Z,27.65
2023-11-25T16:23:40.119Z,29.23
2023-11-25T16:26:10.986Z,27.40
2023-11-25T16:28:37.987Z,29.77
2023-11-25T16:31:04.767Z,25.73
2023-11-25T16:33:31.780Z,27.35
2023-11-25T16:35:58.827Z,26.52
2023-11-25T16:38:26.760Z,28.23
2023-11-25T16:40:53.571Z,27.98
2023-11-25T16:43:25.498Z,27.60
2023-11-25T16:45:53.118Z,28.20
2023-11-25T16:48:20.165Z,24.80
2023-11-25T16:50:46.770Z,28.40
2023-11-25T16:53:15.241Z,28.35
2023-11-25T16:55:42.117Z,28.13
2023-11-25T16:58:09.649Z,28.35
2023-11-25T17:00:36.595Z,25.30
2023-11-25T17:03:03.788Z,24.35
2023-11-25T17:05:30.715Z,25.65
2023-11-25T17:07:57.456Z,27.13
2023-11-25T17:10:26.013Z,25.85
2023-11-25T17:12:52.784Z,25.80
2023-11-25T17:15:19.564Z,24.55
2023-11-25T17:17:46.270Z,26.50
2023-11-25T17:20:13.196Z,25.70
2023-11-25T17:22:39.966Z,26.40
2023-11-25T17:25:09.907Z,26.15
2023-11-25T17:27:37.737Z,26.67
2023-11-25T17:30:05.706Z,28.50
2023-11-25T17:32:32.752Z,25.70
2023-11-25T17:35:00.606Z,27.83
2023-11-25T17:37:27.693Z,26.73
2023-11-25T17:39:54.274Z,27.52
2023-11-25T17:42:21.950Z,27.80
2023-11-25T17:44:48.710Z,27.73
2023-11-25T17:47:16.641Z,25.80
2023-11-25T17:49:43.538Z,26.05
2023-11-25T17:52:12.486Z,26.63
2023-11-25T17:54:39.328Z,27.42
2023-11-25T17:57:06.130Z,28.80
2023-11-25T17:59:35.468Z,27.45
2023-11-25T18:02:02.247Z,28.20
2023-11-25T18:04:29.053Z,26.10
2023-11-25T18:06:55.605Z,29.45
2023-11-25T18:09:22.526Z,28.35
2023-11-25T18:11:49.192Z,28.55
2023-11-25T18:14:15.936Z,28.10
2023-11-25T18:16:43.249Z,27.48
2023-11-25T18:19:11.789Z,27.33
2023-11-25T18:21:38.998Z,24.73
2023-11-25T18:24:06.342Z,27.58
2023-11-25T18:26:33.041Z,25.60
2023-11-25T18:28:59.686Z,24.75
2023-11-25T18:31:26.335Z,26.17
2023-11-25T18:33:52.959Z,27.52
2023-11-25T18:36:19.577Z,28.35
2023-11-25T18:38:46.215Z,28.33
2023-11-25T18:41:13.827Z,25.88
2023-11-25T18:43:41.037Z,26.45
2023-11-25T18:46:11.708Z,27.58
2023-11-25T18:48:39.233Z,27.77
2023-11-25T18:51:06.959Z,29.92
2023-11-25T18:53:34.825Z,28.23
2023-11-25T18:56:02.024Z,27.45
2023-11-25T18:58:30.194Z,28.60
2023-11-25T19:00:57.196Z,29.40
2023-11-25T19:03:25.985Z,30.27
2023-11-25T19:05:53.359Z,28.67
2023-11-25T19:08:20.039Z,29.13
2023-11-25T19:10:46.721Z,29.60
2023-11-25T19:13:13.535Z,29.10
2023-11-25T19:15:40.139Z,27.30
2023-11-25T19:18:09.967Z,26.95
2023-11-25T19:20:36.826Z,24.13
2023-11-25T19:23:03.566Z,25.58
2023-11-25T19:25:31.075Z,27.98
2023-11-25T19:27:57.737Z,25.70
2023-11-25T19:30:24.577Z,26.75
2023-11-25T19:32:51.333Z,27.48
2023-11-25T19:35:18.090Z,26.08
2023-11-25T19:37:44.764Z,25.73
2023-11-25T19:40:12.779Z,26.20
2023-11-25T19:42:39.764Z,25.85
2023-11-25T19:45:07.186Z,25.65
2023-11-25T19:47:34.117Z,27.05
2023-11-25T19:50:01.001Z,26.75
2023-11-25T19:52:27.984Z,25.10
2023-11-25T19:54:54.640Z,25.63
2023-11-25T19:57:21.514Z,26.30
2023-11-25T19:59:49.135Z,23.98
2023-11-25T20:02:16.099Z,20.77
2023-11-25T20:04:43.206Z,24.42
2023-11-25T20:07:10.002Z,21.88
2023-11-25T20:09:36.715Z,23.63
2023-11-25T20:12:03.514Z,23.38
2023-11-25T20:14:30.246Z,23.92
2023-11-25T20:16:58.178Z,23.20
2023-11-25T20:19:26.136Z,23.20
2023-11-25T20:21:52.813Z,23.63
2023-11-25T20:24:19.492Z,23.85
2023-11-25T20:26:46.131Z,24.15
2023-11-25T20:29:12.877Z,25.80
2023-11-25T20:31:41.246Z,23.40
2023-11-25T20:34:08.300Z,24.25
2023-11-25T20:36:36.106Z,23.58
2023-11-25T20:39:03.463Z,25.55
2023-11-25T20:41:30.413Z,22.10
2023-11-25T20:43:57.112Z,24.67
2023-11-25T20:46:23.786Z,24.27
2023-11-25T20:48:50.470Z,25.20
2023-11-25T20:51:21.410Z,24.08
2023-11-25T20:53:48.921Z,22.98
2023-11-25T20:56:16.489Z,25.55
2023-11-25T20:58:43.396Z,26.27
2023-11-25T21:01:11.331Z,25.00
2023-11-25T21:03:38.171Z,26.00
2023-11-25T21:06:07.108Z,25.83
2023-11-25T21:08:34.285Z,25.40
2023-11-25T21:11:01.016Z,25.17
2023-11-25T21:13:27.720Z,24.90
2023-11-25T21:15:54.551Z,24.20
2023-11-25T21:18:22.382Z,24.05
2023-11-25T21:20:48.926Z,27.52
2023-11-25T21:23:15.623Z,24.98
2023-11-25T21:25:45.189Z,23.95
2023-11-25T21:28:12.417Z,23.65
2023-11-25T21:30:39.199Z,23.73
2023-11-25T21:33:05.950Z,23.08
2023-11-25T21:35:35.763Z,25.30
2023-11-25T21:38:05.054Z,24.77
2023-11-25T21:40:31.786Z,25.27
2023-11-25T21:42:58.498Z,25.60
2023-11-25T21:45:27.307Z,25.63
2023-11-25T21:47:54.140Z,24.90
2023-11-25T21:50:20.799Z,24.58
2023-11-25T21:52:47.571Z,27.42
2023-11-25T21:55:15.458Z,23.33
2023-11-25T21:57:42.530Z,22.35
2023-11-25T22:00:14.025Z,24.10
2023-11-25T22:02:40.860Z,24.58
2023-11-25T22:05:11.377Z,23.52
2023-11-25T22:07:39.358Z,22.27
2023-11-25T22:10:21.364Z,23.67
2023-11-25T22:12:58.546Z,24.85
2023-11-25T22:15:25.532Z,24.35
2023-11-25T22:17:52.241Z,24.48
2023-11-25T22:20:19.030Z,23.27
2023-11-25T22:22:45.907Z,23.08
2023-11-25T22:25:15.122Z,23.75
2023-11-25T22:27:42.467Z,23.88
2023-11-25T22:30:12.388Z,24.52
2023-11-25T22:32:39.286Z,23.58
2023-11-25T22:35:06.437Z,23.23
2023-11-25T22:37:34.067Z,24.75
2023-11-25T22:40:00.776Z,24.17
2023-11-25T22:42:27.497Z,25.17
2023-11-25T22:44:54.253Z,23.55
2023-11-25T22:47:21.251Z,23.63
2023-11-25T22:49:48.626Z,21.95
2023-11-25T22:52:15.370Z,23.45
2023-11-25T22:54:41.945Z,23.95
2023-11-25T22:57:09.646Z,25.65
2023-11-25T22:59:39.291Z,24.17
2023-11-25T23:02:07.459Z,24.70
2023-11-25T23:04:34.305Z,23.00
2023-11-25T23:07:00.933Z,23.30
2023-11-25T23:09:29.010Z,24.50
2023-11-25T23:11:55.660Z,24.73
2023-11-25T23:14:22.447Z,25.00
2023-11-25T23:16:49.516Z,24.83
2023-11-25T23:19:17.100Z,22.60
2023-11-25T23:21:43.711Z,23.30
2023-11-25T23:24:10.346Z,25.70
2023-11-25T23:26:40.431Z,26.30
2023-11-25T23:29:07.051Z,25.83
2023-11-25T23:31:33.695Z,26.02
2023-11-25T23:34:00.370Z,23.58
2023-11-25T23:36:27.036Z,23.65
2023-11-25T23:38:53.677Z,26.33
2023-11-25T23:41:20.365Z,26.98
2023-11-25T23:43:46.948Z,27.00
2023-11-25T23:46:13.709Z,23.80
2023-11-25T23:48:40.435Z,25.20
2023-11-25T23:51:07.920Z,25.95
2023-11-25T23:53:34.681Z,25.88
2023-11-25T23:56:01.284Z,27.20
2023-11-25T23:58:27.867Z,25.98
